Time;durP1;ratioP1;P1;durP2;ratioP2;P2;SDS_P1;SDS_P2;PMS_P1;PMS_P2;Temp;Humidity;BMP_temperature;BMP_pressure;BME280_temperature;BME280_humidity;BME280_pressure;Samples;Min_cycle;Max_cycle;Signal;HPM_P1;HPM_P2
2021/07/31 00:00:19;;;;;;;0.50;0.40;;;16.40;99.90;;;;;;5020452;28;20514;-82
2021/07/31 00:02:45;;;;;;;1.10;1.00;;;16.40;99.90;;;;;;5020960;28;21012;-81
2021/07/31 00:05:12;;;;;;;0.50;0.40;;;16.40;99.90;;;;;;5020816;28;20442;-82
2021/07/31 00:07:42;;;;;;;0.50;0.33;;;16.40;99.90;;;;;;5020978;28;20886;-82
2021/07/31 00:10:10;;;;;;;1.23;0.70;;;16.40;99.90;;;;;;5020950;28;20480;-81
2021/07/31 00:12:38;;;;;;;8.47;1.67;;;16.30;99.90;;;;;;5020220;28;20454;-82
2021/07/31 00:15:06;;;;;;;1.17;0.93;;;16.30;99.90;;;;;;5020415;28;20461;-82
2021/07/31 00:17:33;;;;;;;0.50;0.40;;;16.30;99.90;;;;;;5020576;28;20477;-81
2021/07/31 00:20:00;;;;;;;0.50;0.40;;;16.30;99.90;;;;;;5020569;28;20435;-83
2021/07/31 00:22:27;;;;;;;0.60;0.50;;;16.40;99.90;;;;;;5019915;28;20443;-81
2021/07/31 00:24:53;;;;;;;0.50;0.37;;;16.40;99.90;;;;;;5020292;28;20537;-82
2021/07/31 00:27:20;;;;;;;3.53;0.63;;;16.40;99.90;;;;;;5020960;28;20469;-82
2021/07/31 00:29:48;;;;;;;0.50;0.40;;;16.50;99.90;;;;;;5020204;28;20476;-82
2021/07/31 00:32:15;;;;;;;0.60;0.50;;;16.50;99.90;;;;;;5020741;28;20452;-78
2021/07/31 00:34:42;;;;;;;0.53;0.40;;;16.50;99.90;;;;;;5021052;28;20447;-81
2021/07/31 00:37:08;;;;;;;1.00;0.60;;;16.50;99.90;;;;;;5019765;28;20451;-80
2021/07/31 00:39:39;;;;;;;0.50;0.40;;;16.50;99.90;;;;;;5019657;28;20431;-83
2021/07/31 00:42:06;;;;;;;0.93;0.93;;;16.50;99.90;;;;;;5018996;28;20507;-82
2021/07/31 00:44:33;;;;;;;0.50;0.37;;;16.50;99.90;;;;;;5019270;28;20801;-82
2021/07/31 00:47:02;;;;;;;0.50;0.40;;;16.50;99.90;;;;;;5019878;28;20443;-82
2021/07/31 00:49:29;;;;;;;0.50;0.40;;;16.60;99.90;;;;;;5019346;28;20489;-81
2021/07/31 00:51:57;;;;;;;0.53;0.40;;;16.60;99.90;;;;;;5019295;28;20444;-82
2021/07/31 00:54:23;;;;;;;0.50;0.40;;;16.60;99.90;;;;;;5018852;28;20439;-83
2021/07/31 00:56:50;;;;;;;1.17;0.70;;;16.50;99.90;;;;;;5019691;28;20436;-81
2021/07/31 00:59:17;;;;;;;6.83;0.70;;;16.60;99.90;;;;;;5019018;28;20478;-82
2021/07/31 01:01:44;;;;;;;0.60;0.53;;;16.60;99.90;;;;;;5018382;28;20448;-81
2021/07/31 01:04:12;;;;;;;0.50;0.40;;;16.60;99.90;;;;;;5019423;28;20448;-81
2021/07/31 01:06:40;;;;;;;0.60;0.53;;;16.60;99.90;;;;;;5018667;28;20439;-83
2021/07/31 01:09:06;;;;;;;0.60;0.53;;;16.50;99.90;;;;;;5019726;28;20503;-82
2021/07/31 01:11:35;;;;;;;0.73;0.73;;;16.60;99.90;;;;;;5018436;28;20447;-82
2021/07/31 01:14:02;;;;;;;0.67;0.50;;;16.60;99.90;;;;;;5019668;28;20446;-82
2021/07/31 01:16:29;;;;;;;0.60;0.40;;;16.60;99.90;;;;;;5019782;28;20446;-82
2021/07/31 01:18:56;;;;;;;0.50;0.40;;;16.60;99.90;;;;;;5019322;28;20538;-82
2021/07/31 01:21:39;;;;;;;0.83;0.60;;;16.60;99.90;;;;;;5018676;28;20437;-82
2021/07/31 01:24:07;;;;;;;0.50;0.40;;;16.60;99.90;;;;;;5018214;28;20509;-81
2021/07/31 01:26:39;;;;;;;0.50;0.40;;;16.60;99.90;;;;;;5019088;28;20817;-82
2021/07/31 01:29:06;;;;;;;0.50;0.50;;;16.60;99.90;;;;;;5019090;28;20905;-82
2021/07/31 01:31:34;;;;;;;0.50;0.30;;;16.60;99.90;;;;;;5017809;28;20470;-81
2021/07/31 01:34:01;;;;;;;0.60;0.60;;;16.60;99.90;;;;;;5019283;28;20502;-82
2021/07/31 01:36:27;;;;;;;0.60;0.57;;;16.60;99.90;;;;;;5019210;28;20443;-82
2021/07/31 01:38:56;;;;;;;0.60;0.60;;;16.60;99.90;;;;;;5018072;28;20474;-82
2021/07/31 01:41:23;;;;;;;0.70;0.70;;;16.50;99.90;;;;;;5018287;28;20446;-82
2021/07/31 01:43:50;;;;;;;1.03;0.70;;;16.60;99.90;;;;;;5018707;28;20457;-81
2021/07/31 01:46:18;;;;;;;0.60;0.40;;;16.60;99.90;;;;;;5018762;28;20526;-82
2021/07/31 01:48:45;;;;;;;0.50;0.40;;;16.60;99.90;;;;;;5019149;28;20463;-83
2021/07/31 01:51:12;;;;;;;1.73;0.60;;;16.60;99.90;;;;;;5018367;28;20845;-82
2021/07/31 01:53:39;;;;;;;1.13;0.97;;;16.60;99.90;;;;;;5018306;28;20516;-81
2021/07/31 01:56:07;;;;;;;0.60;0.53;;;16.60;99.90;;;;;;5018852;28;20444;-81
2021/07/31 01:58:34;;;;;;;0.63;0.57;;;16.60;99.90;;;;;;5018025;28;20973;-82
2021/07/31 02:01:01;;;;;;;2.87;0.83;;;16.60;99.90;;;;;;5018277;28;20435;-82
2021/07/31 02:03:28;;;;;;;0.60;0.60;;;16.60;99.90;;;;;;5018726;28;20447;-81
2021/07/31 02:05:55;;;;;;;1.10;1.00;;;16.60;99.90;;;;;;5017566;28;20451;-80
2021/07/31 02:08:22;;;;;;;0.50;0.50;;;16.60;99.90;;;;;;5017393;28;20459;-81
2021/07/31 02:10:49;;;;;;;0.50;0.40;;;16.60;99.90;;;;;;5017625;28;20477;-82
2021/07/31 02:13:17;;;;;;;0.70;0.63;;;16.60;99.90;;;;;;5017759;28;20466;-81
2021/07/31 02:15:45;;;;;;;0.50;0.40;;;16.60;99.90;;;;;;5017582;28;20435;-81
2021/07/31 02:18:12;;;;;;;1.07;0.97;;;16.60;99.90;;;;;;5016096;28;20466;-79
2021/07/31 02:20:40;;;;;;;1.87;1.70;;;16.50;99.90;;;;;;5018299;28;20446;-82
2021/07/31 02:23:07;;;;;;;1.23;0.80;;;16.50;99.90;;;;;;5017608;28;20442;-82
2021/07/31 02:25:34;;;;;;;10.30;0.97;;;16.40;99.90;;;;;;5018141;28;20443;-81
2021/07/31 02:28:00;;;;;;;3.57;0.93;;;16.40;99.90;;;;;;5018451;28;20455;-80
2021/07/31 02:30:29;;;;;;;1.13;0.90;;;16.40;99.90;;;;;;5017798;28;20490;-80
2021/07/31 02:32:55;;;;;;;2.80;0.87;;;16.30;99.90;;;;;;5019012;28;20443;-82
2021/07/31 02:35:22;;;;;;;2.13;1.00;;;16.30;99.90;;;;;;5017782;28;20457;-82
2021/07/31 02:37:49;;;;;;;0.83;0.70;;;16.20;99.90;;;;;;5018206;28;20471;-82
2021/07/31 02:40:16;;;;;;;1.77;0.50;;;16.20;99.90;;;;;;5018258;28;20447;-81
2021/07/31 02:42:42;;;;;;;0.60;0.50;;;16.20;99.90;;;;;;5017771;28;20801;-82
2021/07/31 02:45:10;;;;;;;0.60;0.40;;;16.10;99.90;;;;;;5018003;28;20929;-81
2021/07/31 02:47:38;;;;;;;1.90;1.47;;;16.20;99.90;;;;;;5018276;28;20814;-80
2021/07/31 02:50:05;;;;;;;0.60;0.40;;;16.20;99.90;;;;;;5016574;28;20479;-79
2021/07/31 02:52:32;;;;;;;1.40;0.80;;;16.20;99.90;;;;;;5017032;28;20439;-81
2021/07/31 02:55:02;;;;;;;0.50;0.37;;;16.20;99.90;;;;;;5016514;28;20439;-81
2021/07/31 02:57:29;;;;;;;1.30;0.83;;;16.10;99.90;;;;;;5017071;28;20491;-82
2021/07/31 02:59:56;;;;;;;0.60;0.40;;;16.10;99.90;;;;;;5017403;28;20801;-82
2021/07/31 03:02:24;;;;;;;0.60;0.40;;;16.10;99.90;;;;;;5017488;28;20542;-82
2021/07/31 03:04:52;;;;;;;0.70;0.50;;;16.20;99.90;;;;;;5017474;28;20443;-81
2021/07/31 03:07:20;;;;;;;1.00;0.90;;;16.20;99.90;;;;;;5017303;28;20447;-82
2021/07/31 03:09:47;;;;;;;0.80;0.60;;;16.30;99.90;;;;;;5017032;28;20482;-82
2021/07/31 03:12:14;;;;;;;0.90;0.80;;;16.30;99.90;;;;;;5016310;28;20801;-81
2021/07/31 03:14:42;;;;;;;0.50;0.40;;;16.30;99.90;;;;;;5017540;28;20443;-82
2021/07/31 03:17:09;;;;;;;1.63;0.60;;;16.30;99.90;;;;;;5017577;28;20447;-82
2021/07/31 03:19:36;;;;;;;1.23;1.13;;;16.30;99.90;;;;;;5016917;28;20442;-82
2021/07/31 03:22:04;;;;;;;0.90;0.70;;;16.40;99.90;;;;;;5016649;28;20450;-81
2021/07/31 03:24:31;;;;;;;1.23;0.57;;;16.40;99.90;;;;;;5016716;28;20443;-81
2021/07/31 03:26:58;;;;;;;1.27;0.87;;;16.40;99.90;;;;;;5016820;28;20443;-82
2021/07/31 03:29:25;;;;;;;5.90;1.63;;;16.40;99.90;;;;;;5016985;28;20463;-80
2021/07/31 03:31:52;;;;;;;0.57;0.53;;;16.40;99.90;;;;;;5019745;28;20454;-81
2021/07/31 03:34:21;;;;;;;1.43;0.73;;;16.40;99.90;;;;;;5020925;28;20453;-80
2021/07/31 03:36:51;;;;;;;1.63;0.80;;;16.50;99.90;;;;;;5020359;28;20454;-82
2021/07/31 03:39:20;;;;;;;0.60;0.50;;;16.50;99.90;;;;;;5022883;28;20502;-83
2021/07/31 03:41:47;;;;;;;1.33;0.70;;;16.40;99.90;;;;;;5022513;28;20459;-81
2021/07/31 03:44:14;;;;;;;2.77;0.93;;;16.40;99.90;;;;;;5022584;28;20941;-79
2021/07/31 03:46:43;;;;;;;1.00;0.77;;;16.40;99.90;;;;;;5018373;28;20439;-81
2021/07/31 03:49:10;;;;;;;0.50;0.37;;;16.40;99.90;;;;;;5017583;28;20988;-82
2021/07/31 03:51:37;;;;;;;0.50;0.40;;;16.40;99.90;;;;;;5017324;28;20477;-82
2021/07/31 03:54:04;;;;;;;0.80;0.80;;;16.40;99.90;;;;;;5017685;28;20933;-82
2021/07/31 03:56:32;;;;;;;0.60;0.60;;;16.40;99.90;;;;;;5018065;28;20446;-81
2021/07/31 03:58:59;;;;;;;0.50;0.40;;;16.40;99.90;;;;;;5017441;28;20459;-82
2021/07/31 04:01:26;;;;;;;0.60;0.50;;;16.40;99.90;;;;;;5017415;28;20432;-83
2021/07/31 04:03:54;;;;;;;0.60;0.60;;;16.30;99.90;;;;;;5017041;28;20439;-80
2021/07/31 04:06:21;;;;;;;2.63;1.40;;;16.30;99.90;;;;;;5017395;28;20443;-81
2021/07/31 04:08:47;;;;;;;1.83;0.83;;;16.20;99.90;;;;;;5016812;28;20463;-81
2021/07/31 04:11:15;;;;;;;0.50;0.30;;;16.20;99.90;;;;;;5016648;28;20493;-82
2021/07/31 04:13:43;;;;;;;1.43;1.33;;;16.10;99.90;;;;;;5017175;28;20450;-80
2021/07/31 04:16:10;;;;;;;1.13;1.03;;;16.10;99.90;;;;;;5016222;28;20435;-82
2021/07/31 04:18:37;;;;;;;1.07;0.60;;;16.10;99.90;;;;;;5016589;28;20471;-82
2021/07/31 04:21:06;;;;;;;0.90;0.57;;;16.10;99.90;;;;;;5016108;28;20446;-82
2021/07/31 04:23:33;;;;;;;1.73;0.80;;;16.10;99.90;;;;;;5016642;28;20443;-82
2021/07/31 04:25:59;;;;;;;0.60;0.60;;;16.00;99.90;;;;;;5016068;28;20448;-82
2021/07/31 04:28:26;;;;;;;0.77;0.77;;;16.00;99.90;;;;;;5016366;28;20972;-81
2021/07/31 04:30:54;;;;;;;1.80;1.63;;;16.00;99.90;;;;;;5015769;28;20818;-82
2021/07/31 04:33:21;;;;;;;1.00;0.90;;;16.00;99.90;;;;;;5016500;28;20440;-80
2021/07/31 04:35:48;;;;;;;0.50;0.30;;;16.10;99.90;;;;;;5016157;28;20443;-82
2021/07/31 04:38:15;;;;;;;0.63;0.57;;;16.10;99.90;;;;;;5015815;28;20984;-81
2021/07/31 04:40:42;;;;;;;9.50;0.80;;;16.20;99.90;;;;;;5015866;28;20493;-81
2021/07/31 04:43:08;;;;;;;1.43;0.80;;;16.20;99.90;;;;;;5015619;28;20442;-80
2021/07/31 04:45:35;;;;;;;1.07;1.07;;;16.10;99.90;;;;;;5016524;28;20450;-82
2021/07/31 04:48:04;;;;;;;0.97;0.97;;;16.10;99.90;;;;;;5015315;28;20467;-81
2021/07/31 04:50:30;;;;;;;0.50;0.33;;;16.20;99.90;;;;;;5015644;28;20485;-81
2021/07/31 04:52:57;;;;;;;1.97;1.50;;;16.20;99.90;;;;;;5016517;28;20486;-81
2021/07/31 04:55:24;;;;;;;0.50;0.40;;;16.20;99.90;;;;;;5015980;28;20474;-81
2021/07/31 04:57:51;;;;;;;0.50;0.40;;;16.20;99.90;;;;;;5016621;28;20694;-81
2021/07/31 05:00:18;;;;;;;0.60;0.50;;;16.20;99.90;;;;;;5015300;28;20443;-82
2021/07/31 05:02:44;;;;;;;0.70;0.67;;;16.20;99.90;;;;;;5016125;28;20450;-82
2021/07/31 05:05:13;;;;;;;0.80;0.50;;;16.30;99.90;;;;;;5015879;28;20523;-80
2021/07/31 05:07:39;;;;;;;1.10;0.80;;;16.20;99.90;;;;;;5015776;28;20466;-81
2021/07/31 05:10:07;;;;;;;1.60;0.60;;;16.20;99.90;;;;;;5015326;28;20793;-82
2021/07/31 05:12:34;;;;;;;0.80;0.70;;;16.20;99.90;;;;;;5016120;28;20446;-82
2021/07/31 05:15:01;;;;;;;3.20;1.10;;;16.20;99.90;;;;;;5016304;28;20439;-81
2021/07/31 05:17:27;;;;;;;0.60;0.40;;;16.30;99.90;;;;;;5015346;28;20964;-80
2021/07/31 05:19:54;;;;;;;3.80;0.70;;;16.30;99.90;;;;;;5015144;28;20439;-81
2021/07/31 05:22:22;;;;;;;0.80;0.60;;;16.30;99.90;;;;;;5014962;28;20505;-82
2021/07/31 05:24:53;;;;;;;0.60;0.50;;;16.30;99.90;;;;;;5016036;28;20816;-83
2021/07/31 05:27:20;;;;;;;0.50;0.40;;;16.20;99.90;;;;;;5015784;28;20505;-81
2021/07/31 05:29:47;;;;;;;0.77;0.50;;;16.30;99.90;;;;;;5015664;28;20443;-79
2021/07/31 05:32:14;;;;;;;0.60;0.60;;;16.30;99.90;;;;;;5014588;28;20549;-82
2021/07/31 05:34:40;;;;;;;0.50;0.40;;;16.30;99.90;;;;;;5015382;28;20446;-81
2021/07/31 05:37:07;;;;;;;0.70;0.70;;;16.30;99.90;;;;;;5014614;28;20435;-81
2021/07/31 05:39:35;;;;;;;1.10;1.00;;;16.30;99.90;;;;;;5015100;28;20470;-82
2021/07/31 05:42:05;;;;;;;0.60;0.50;;;16.30;99.90;;;;;;5014830;28;20440;-82
2021/07/31 05:44:32;;;;;;;0.50;0.43;;;16.30;99.90;;;;;;5015067;28;20833;-81
2021/07/31 05:46:59;;;;;;;0.60;0.40;;;16.30;99.90;;;;;;5015030;28;20447;-81
2021/07/31 05:49:29;;;;;;;4.40;1.30;;;16.30;99.90;;;;;;5014511;28;20468;-80
2021/07/31 05:51:55;;;;;;;1.13;0.83;;;16.30;99.90;;;;;;5014674;28;20472;-81
2021/07/31 05:54:22;;;;;;;0.50;0.50;;;16.30;99.90;;;;;;5014573;28;20519;-80
2021/07/31 05:56:50;;;;;;;0.83;0.80;;;16.30;99.90;;;;;;5015009;28;20833;-82
2021/07/31 05:59:17;;;;;;;2.73;1.00;;;16.30;99.90;;;;;;5014743;28;20493;-81
2021/07/31 06:01:44;;;;;;;0.50;0.40;;;16.30;99.90;;;;;;5013779;28;20443;-81
2021/07/31 06:04:10;;;;;;;2.43;2.27;;;16.30;99.90;;;;;;5015464;28;20805;-81
2021/07/31 06:06:37;;;;;;;0.60;0.60;;;16.40;99.90;;;;;;5014737;28;20428;-80
2021/07/31 06:09:04;;;;;;;0.50;0.30;;;16.50;99.90;;;;;;5014667;28;20475;-82
2021/07/31 06:11:31;;;;;;;1.63;1.53;;;16.50;99.90;;;;;;5014440;28;20501;-81
2021/07/31 06:13:59;;;;;;;0.90;0.80;;;16.60;99.90;;;;;;5014695;28;20435;-81
2021/07/31 06:16:27;;;;;;;0.60;0.60;;;16.60;99.90;;;;;;5014815;28;20450;-79
2021/07/31 06:18:54;;;;;;;2.63;1.37;;;16.60;99.90;;;;;;5014248;28;20463;-81
2021/07/31 06:21:21;;;;;;;0.60;0.40;;;16.50;99.90;;;;;;5014352;28;20450;-82
2021/07/31 06:23:47;;;;;;;1.20;0.80;;;16.50;99.90;;;;;;5014812;28;20447;-80
2021/07/31 06:26:14;;;;;;;1.03;0.90;;;16.60;99.90;;;;;;5014335;28;20450;-81
2021/07/31 06:28:41;;;;;;;1.03;1.03;;;16.70;99.90;;;;;;5014645;28;20459;-80
2021/07/31 06:31:09;;;;;;;0.50;0.40;;;16.80;99.90;;;;;;5013876;28;20483;-80
2021/07/31 06:33:36;;;;;;;0.70;0.67;;;16.90;99.90;;;;;;5014047;28;20449;-81
2021/07/31 06:36:03;;;;;;;1.20;0.70;;;16.90;99.90;;;;;;5014660;28;21027;-80
2021/07/31 06:38:30;;;;;;;2.80;1.27;;;16.90;99.90;;;;;;5014657;28;20467;-82
2021/07/31 06:40:57;;;;;;;0.70;0.60;;;17.10;99.90;;;;;;5013791;28;20794;-80
2021/07/31 06:43:23;;;;;;;0.60;0.50;;;17.30;99.90;;;;;;5014769;28;20446;-82
2021/07/31 06:45:50;;;;;;;2.00;1.90;;;17.40;99.90;;;;;;5014614;28;20448;-82
2021/07/31 06:48:18;;;;;;;0.67;0.67;;;17.40;99.90;;;;;;5014658;28;20486;-82
2021/07/31 06:50:45;;;;;;;0.97;0.87;;;17.10;99.90;;;;;;5014073;28;20900;-81
2021/07/31 06:53:12;;;;;;;0.80;0.77;;;17.10;99.90;;;;;;5014535;28;20450;-81
2021/07/31 06:55:39;;;;;;;7.10;0.73;;;17.00;99.90;;;;;;5014381;28;20446;-82
2021/07/31 06:58:05;;;;;;;0.67;0.67;;;16.90;99.90;;;;;;5014602;28;20467;-81
2021/07/31 07:00:33;;;;;;;2.10;1.03;;;16.90;99.90;;;;;;5014067;28;20451;-80
2021/07/31 07:03:00;;;;;;;1.20;1.10;;;16.80;99.90;;;;;;5014677;28;20523;-81
2021/07/31 07:05:28;;;;;;;0.50;0.40;;;16.70;99.90;;;;;;5016010;28;20439;-81
2021/07/31 07:07:55;;;;;;;0.90;0.60;;;16.60;99.90;;;;;;5017652;28;20459;-80
2021/07/31 07:10:21;;;;;;;0.70;0.47;;;17.00;99.90;;;;;;5018062;28;20443;-80
2021/07/31 07:12:48;;;;;;;0.60;0.57;;;17.20;99.90;;;;;;5017619;28;20502;-81
2021/07/31 07:15:15;;;;;;;0.70;0.70;;;17.50;99.90;;;;;;5017811;28;20462;-81
2021/07/31 07:17:41;;;;;;;2.80;0.80;;;17.50;99.90;;;;;;5017590;28;20458;-80
2021/07/31 07:20:09;;;;;;;1.27;1.17;;;17.20;99.90;;;;;;5017515;28;20453;-81
2021/07/31 07:22:37;;;;;;;9.97;2.27;;;17.20;99.90;;;;;;5017826;28;20960;-81
2021/07/31 07:25:04;;;;;;;0.50;0.30;;;17.80;99.90;;;;;;5018245;28;20575;-80
2021/07/31 07:27:31;;;;;;;7.17;1.47;;;18.10;99.90;;;;;;5017631;28;20468;-81
2021/07/31 07:29:58;;;;;;;0.50;0.50;;;18.40;99.90;;;;;;5016680;28;20820;-81
2021/07/31 07:32:25;;;;;;;0.50;0.30;;;18.70;99.90;;;;;;5017241;28;20475;-81
2021/07/31 07:34:51;;;;;;;0.60;0.40;;;19.40;99.90;;;;;;5017577;28;20436;-83
2021/07/31 07:37:18;;;;;;;0.90;0.50;;;19.50;99.90;;;;;;5016509;28;20439;-80
2021/07/31 07:39:46;;;;;;;0.60;0.40;;;19.10;99.90;;;;;;5017842;28;20446;-80
2021/07/31 07:42:13;;;;;;;0.50;0.40;;;18.60;99.90;;;;;;5017766;28;20443;-81
2021/07/31 07:44:40;;;;;;;1.43;0.60;;;18.30;99.90;;;;;;5016952;28;20450;-81
2021/07/31 07:47:06;;;;;;;0.60;0.43;;;18.10;99.90;;;;;;5017262;28;20446;-82
2021/07/31 07:49:33;;;;;;;0.50;0.40;;;18.00;99.90;;;;;;5017202;28;20463;-82
2021/07/31 07:52:00;;;;;;;0.67;0.60;;;18.10;99.90;;;;;;5017463;28;20845;-81
2021/07/31 07:54:28;;;;;;;1.93;1.23;;;19.10;99.90;;;;;;5017262;28;20435;-81
2021/07/31 07:56:56;;;;;;;0.70;0.70;;;20.60;99.90;;;;;;5016557;28;20535;-81
2021/07/31 07:59:23;;;;;;;0.80;0.80;;;21.50;99.90;;;;;;5017168;28;20460;-81
2021/07/31 08:01:49;;;;;;;0.53;0.40;;;20.90;99.90;;;;;;5016905;28;20437;-81
2021/07/31 08:04:16;;;;;;;1.63;1.33;;;20.40;99.90;;;;;;5017997;28;20458;-81
2021/07/31 08:06:44;;;;;;;1.23;0.90;;;19.70;99.90;;;;;;5017207;28;20813;-81
2021/07/31 08:09:10;;;;;;;0.60;0.60;;;19.10;99.90;;;;;;5016331;28;21047;-80
2021/07/31 08:11:42;;;;;;;1.40;1.30;;;18.80;99.90;;;;;;5016664;28;20475;-79
2021/07/31 08:14:11;;;;;;;0.50;0.37;;;18.70;99.90;;;;;;5017015;28;20424;-81
2021/07/31 08:16:37;;;;;;;0.90;0.87;;;18.60;99.90;;;;;;5015508;28;20443;-80
2021/07/31 08:19:06;;;;;;;1.47;0.80;;;18.40;99.90;;;;;;5017090;28;20475;-79
2021/07/31 08:21:33;;;;;;;0.50;0.40;;;18.20;99.90;;;;;;5016795;28;20534;-81
2021/07/31 08:24:00;;;;;;;0.70;0.70;;;18.10;99.90;;;;;;5016352;28;20443;-81
2021/07/31 08:26:27;;;;;;;0.90;0.80;;;18.00;99.90;;;;;;5016623;28;20439;-82
2021/07/31 08:28:53;;;;;;;0.50;0.40;;;18.00;99.90;;;;;;5016435;28;20467;-82
2021/07/31 08:31:22;;;;;;;2.20;1.27;;;18.20;99.90;;;;;;5015845;28;21001;-81
2021/07/31 08:33:48;;;;;;;1.20;1.07;;;18.20;99.90;;;;;;5016697;28;20439;-82
2021/07/31 08:36:15;;;;;;;1.47;0.50;;;18.10;99.90;;;;;;5016141;28;20473;-81
2021/07/31 08:38:42;;;;;;;1.33;1.23;;;18.10;99.90;;;;;;5015960;28;20477;-82
2021/07/31 08:41:09;;;;;;;1.13;1.03;;;18.10;99.90;;;;;;5016667;28;20825;-81
2021/07/31 08:43:36;;;;;;;0.50;0.40;;;18.10;99.90;;;;;;5016813;28;20436;-81
2021/07/31 08:46:07;;;;;;;0.50;0.50;;;18.20;99.90;;;;;;5016562;28;20451;-81
2021/07/31 08:48:35;;;;;;;0.73;0.73;;;18.50;99.90;;;;;;5015878;28;20999;-78
2021/07/31 08:51:03;;;;;;;0.60;0.50;;;20.30;99.90;;;;;;5016055;28;20446;-83
2021/07/31 08:53:31;;;;;;;0.50;0.30;;;21.80;99.90;;;;;;5016334;28;20441;-81
2021/07/31 08:55:58;;;;;;;1.00;0.40;;;23.00;99.90;;;;;;5016597;28;20450;-80
2021/07/31 08:58:25;;;;;;;0.87;0.60;;;23.80;99.90;;;;;;5016987;28;20467;-82
2021/07/31 09:00:53;;;;;;;0.50;0.37;;;24.90;99.90;;;;;;5015910;28;20454;-81
2021/07/31 09:03:20;;;;;;;5.00;1.17;;;24.70;99.90;;;;;;5019495;28;20458;-79
2021/07/31 09:05:49;;;;;;;0.53;0.40;;;24.40;99.90;;;;;;5022787;28;20453;-80
2021/07/31 09:08:16;;;;;;;4.20;4.00;;;24.50;99.90;;;;;;5020844;28;20463;-82
2021/07/31 09:10:44;;;;;;;0.67;0.67;;;24.70;99.90;;;;;;5018951;28;20443;-81
2021/07/31 09:13:13;;;;;;;0.60;0.40;;;24.90;99.90;;;;;;5021622;28;20482;-82
2021/07/31 09:15:42;;;;;;;0.60;0.60;;;23.30;99.90;;;;;;5021215;28;20855;-79
2021/07/31 09:18:24;;;;;;;0.50;0.30;;;22.50;99.90;;;;;;5016437;28;21011;-81
2021/07/31 09:20:57;;;;;;;3.00;0.60;;;22.30;99.90;;;;;;5015413;28;20448;-81
2021/07/31 09:23:24;;;;;;;0.50;0.30;;;21.90;99.90;;;;;;5015994;28;20439;-81
2021/07/31 09:26:00;;;;;;;0.57;0.47;;;22.30;99.90;;;;;;5015727;28;20813;-82
2021/07/31 09:28:27;;;;;;;1.87;0.67;;;21.90;99.90;;;;;;5015674;28;20459;-80
2021/07/31 09:30:54;;;;;;;1.00;0.90;;;20.90;99.90;;;;;;5015539;28;20452;-81
2021/07/31 09:33:21;;;;;;;0.50;0.40;;;20.20;99.90;;;;;;5016952;28;20493;-78
2021/07/31 09:35:49;;;;;;;0.50;0.30;;;20.00;99.90;;;;;;5014903;28;20443;-81
2021/07/31 09:38:17;;;;;;;0.60;0.53;;;20.00;99.90;;;;;;5014979;28;20482;-81
2021/07/31 09:40:44;;;;;;;4.60;0.47;;;19.90;99.90;;;;;;5014823;28;20452;-79
2021/07/31 09:43:15;;;;;;;0.70;0.50;;;19.90;99.90;;;;;;5015352;28;20443;-81
2021/07/31 09:45:42;;;;;;;2.57;0.50;;;19.80;99.90;;;;;;5014798;28;20451;-81
2021/07/31 09:48:10;;;;;;;0.53;0.43;;;19.80;99.90;;;;;;5014024;28;20459;-80
2021/07/31 09:50:41;;;;;;;0.50;0.30;;;20.20;99.90;;;;;;5014862;28;20462;-81
2021/07/31 09:53:12;;;;;;;1.27;0.73;;;20.50;99.90;;;;;;5014001;28;20470;-80
2021/07/31 09:55:46;;;;;;;0.50;0.40;;;20.50;99.90;;;;;;5014756;28;20442;-82
2021/07/31 09:58:17;;;;;;;0.60;0.50;;;20.60;99.90;;;;;;5014663;28;20481;-79
2021/07/31 10:00:45;;;;;;;0.50;0.30;;;20.60;99.90;;;;;;5013503;28;20845;-79
2021/07/31 10:03:13;;;;;;;0.90;0.63;;;20.60;99.90;;;;;;5014168;28;20444;-80
2021/07/31 10:05:42;;;;;;;0.50;0.40;;;21.10;99.90;;;;;;5014925;28;20953;-81
2021/07/31 10:08:09;;;;;;;0.60;0.40;;;22.30;99.90;;;;;;5014545;28;20472;-80
2021/07/31 10:10:36;;;;;;;0.50;0.33;;;23.50;99.90;;;;;;5014121;28;20449;-81
2021/07/31 10:13:04;;;;;;;0.50;0.30;;;23.40;99.90;;;;;;5014329;28;20481;-81
2021/07/31 10:15:32;;;;;;;0.50;0.30;;;22.90;99.90;;;;;;5015368;28;20453;-81
2021/07/31 10:17:59;;;;;;;0.70;0.57;;;23.60;99.90;;;;;;5015870;28;20460;-81
2021/07/31 10:20:27;;;;;;;0.80;0.60;;;24.70;99.90;;;;;;5014332;28;21190;-81
2021/07/31 10:22:55;;;;;;;0.70;0.60;;;25.00;99.90;;;;;;5015395;28;20446;-80
2021/07/31 10:25:22;;;;;;;0.60;0.50;;;25.60;99.90;;;;;;5013726;28;20439;-78
2021/07/31 10:27:50;;;;;;;0.80;0.80;;;25.80;99.90;;;;;;5013470;28;20466;-81
2021/07/31 10:30:34;;;;;;;0.50;0.30;;;25.30;96.80;;;;;;5013762;28;20436;-78
2021/07/31 10:33:02;;;;;;;0.50;0.40;;;24.90;99.90;;;;;;5013437;28;20477;-80
2021/07/31 10:35:35;;;;;;;1.13;0.90;;;25.80;99.90;;;;;;5013825;28;20451;-81
2021/07/31 10:38:12;;;;;;;0.60;0.60;;;25.40;96.40;;;;;;5013892;28;20471;-81
2021/07/31 10:40:44;;;;;;;0.50;0.30;;;24.20;99.90;;;;;;5016036;28;20498;-80
2021/07/31 10:43:12;;;;;;;0.50;0.40;;;23.40;99.90;;;;;;5018327;28;20434;-80
2021/07/31 10:45:41;;;;;;;0.57;0.50;;;22.70;99.90;;;;;;5017802;28;20522;-80
2021/07/31 10:48:26;;;;;;;0.60;0.50;;;22.00;99.90;;;;;;5017331;28;20464;-80
2021/07/31 10:50:53;;;;;;;0.60;0.50;;;21.20;99.90;;;;;;5017097;28;20430;-81
2021/07/31 10:53:21;;;;;;;1.70;1.00;;;21.00;99.90;;;;;;5018258;28;20480;-79
2021/07/31 10:56:01;;;;;;;0.50;0.30;;;21.00;99.90;;;;;;5018013;28;20475;-81
2021/07/31 10:58:30;;;;;;;0.73;0.73;;;21.40;99.90;;;;;;5017279;28;20466;-80
2021/07/31 11:01:26;;;;;;;0.60;0.50;;;21.30;99.90;;;;;;5017173;28;20441;-80
2021/07/31 11:03:52;;;;;;;0.57;0.50;;;21.00;99.90;;;;;;5017948;28;20798;-81
2021/07/31 11:06:19;;;;;;;0.70;0.50;;;21.20;99.90;;;;;;5017595;28;20980;-81
2021/07/31 11:09:13;;;;;;;0.60;0.57;;;21.20;99.90;;;;;;5017717;28;20460;-81
2021/07/31 11:11:40;;;;;;;0.53;0.50;;;21.00;99.90;;;;;;5016854;28;20443;-82
2021/07/31 11:14:08;;;;;;;0.50;0.40;;;20.90;99.90;;;;;;5017737;28;20473;-81
2021/07/31 11:16:36;;;;;;;0.50;0.40;;;20.80;99.90;;;;;;5017524;28;20455;-80
2021/07/31 11:19:02;;;;;;;0.50;0.40;;;20.70;99.90;;;;;;5016944;28;20476;-81
2021/07/31 11:21:38;;;;;;;0.50;0.40;;;20.80;99.90;;;;;;5019100;28;20437;-82
2021/07/31 11:24:07;;;;;;;0.50;0.40;;;21.10;99.90;;;;;;5017745;28;20423;-81
2021/07/31 11:26:45;;;;;;;1.80;0.77;;;21.80;99.90;;;;;;5017224;28;20486;-81
2021/07/31 11:29:17;;;;;;;0.70;0.67;;;22.60;99.90;;;;;;5020702;28;20471;-82
2021/07/31 11:31:57;;;;;;;0.50;0.30;;;23.10;99.90;;;;;;5020028;28;20430;-81
2021/07/31 11:34:23;;;;;;;0.70;0.67;;;23.60;99.90;;;;;;5016841;28;20439;-78
2021/07/31 11:36:55;;;;;;;0.60;0.53;;;24.50;99.90;;;;;;5019544;28;20442;-81
2021/07/31 11:39:22;;;;;;;0.77;0.50;;;24.10;99.90;;;;;;5017003;28;20470;-80
2021/07/31 11:41:49;;;;;;;0.50;0.40;;;23.80;99.90;;;;;;5016841;28;20445;-81
2021/07/31 11:44:24;;;;;;;0.60;0.40;;;23.40;99.90;;;;;;5016606;28;20526;-83
2021/07/31 11:46:53;;;;;;;0.70;0.60;;;22.70;99.90;;;;;;5017028;28;20424;-81
2021/07/31 11:49:28;;;;;;;0.73;0.50;;;22.30;99.90;;;;;;5017176;28;20466;-80
2021/07/31 11:51:56;;;;;;;0.60;0.50;;;22.10;99.90;;;;;;5017309;28;20441;-81
2021/07/31 11:54:23;;;;;;;0.60;0.40;;;21.90;99.90;;;;;;5016903;28;20458;-76
2021/07/31 11:56:51;;;;;;;0.50;0.30;;;21.80;99.90;;;;;;5016909;28;20438;-81
2021/07/31 11:59:25;;;;;;;0.50;0.30;;;21.70;99.90;;;;;;5016788;28;20458;-81
2021/07/31 12:01:56;;;;;;;0.60;0.50;;;21.80;99.90;;;;;;5016398;28;20438;-80
2021/07/31 12:04:45;;;;;;;0.50;0.30;;;21.70;99.90;;;;;;5016847;28;20437;-81
2021/07/31 12:07:14;;;;;;;2.30;0.93;;;21.40;99.90;;;;;;5016632;28;20424;-82
2021/07/31 12:09:41;;;;;;;0.50;0.50;;;21.30;99.90;;;;;;5016527;28;20448;-81
2021/07/31 12:12:24;;;;;;;0.50;0.30;;;21.20;99.90;;;;;;5015799;28;20439;-81
2021/07/31 12:15:09;;;;;;;0.50;0.30;;;21.50;99.90;;;;;;5016466;28;20425;-82
2021/07/31 12:17:38;;;;;;;0.60;0.57;;;22.10;99.90;;;;;;5015932;28;20470;-82
2021/07/31 12:20:06;;;;;;;0.50;0.30;;;23.20;99.90;;;;;;5016810;28;20443;-79
2021/07/31 12:22:35;;;;;;;0.50;0.30;;;24.40;99.90;;;;;;5016381;28;20435;-81
2021/07/31 12:25:07;;;;;;;0.50;0.30;;;24.90;99.90;;;;;;5016183;28;20446;-81
2021/07/31 12:27:51;;;;;;;0.50;0.30;;;24.40;99.90;;;;;;5016271;28;20457;-81
2021/07/31 12:30:27;;;;;;;0.50;0.30;;;23.80;99.90;;;;;;5016093;28;20439;-78
2021/07/31 12:32:56;;;;;;;0.50;0.30;;;23.70;99.90;;;;;;5016289;28;20878;-82
2021/07/31 12:35:47;;;;;;;0.60;0.47;;;23.40;99.90;;;;;;5015953;28;20936;-81
2021/07/31 12:38:17;;;;;;;0.60;0.50;;;22.90;99.90;;;;;;4991574;28;20467;-81
2021/07/31 12:40:44;;;;;;;1.07;1.07;;;22.30;99.90;;;;;;5015636;28;20494;-82
2021/07/31 12:43:12;;;;;;;0.60;0.60;;;21.80;99.90;;;;;;5016148;28;20438;-82
2021/07/31 12:45:41;;;;;;;0.50;0.30;;;21.20;99.90;;;;;;5015324;28;20885;-80
2021/07/31 12:48:09;;;;;;;0.80;0.50;;;20.90;99.90;;;;;;5015683;28;20465;-81
2021/07/31 12:50:37;;;;;;;0.50;0.30;;;20.50;99.90;;;;;;5015989;28;20439;-83
2021/07/31 12:53:04;;;;;;;2.43;2.33;;;20.30;99.90;;;;;;5015569;28;20471;-82